Terminal Aerodrome Forecast
Issued by NWS Charleston, WV

Home | Current Version | Previous Version | Text Only | Print | Product List | Glossary On
Versions: 1 2 3 4 5 6 7 8 9 10 11 12 13 14 15 16 17 18 19 20 21 22 23 24
000
FTUS41 KRLX 222300 CCA
TAFBKW
TAF COR
KBKW 222353Z 2300/2324 13007G18KT P6SM BKN008
     FM230400 13007G17KT P6SM BKN020
     FM231400 16005G16KT P6SM BKN025
     FM231800 17011G22KT P6SM BKN035=

USA.gov is the U.S. government's official web portal to all federal, state and local government web resources and services.